createdAt,value
2018-09-13T00:01:04.544Z,9.53
2018-09-13T00:03:31.836Z,11.00
2018-09-13T00:05:59.076Z,10.30
2018-09-13T00:08:26.360Z,10.67
2018-09-13T00:10:53.665Z,11.10
2018-09-13T00:13:20.971Z,11.30
2018-09-13T00:15:48.436Z,11.87
2018-09-13T00:18:15.708Z,10.17
2018-09-13T00:20:42.931Z,11.03
2018-09-13T00:23:10.165Z,14.30
2018-09-13T00:25:37.628Z,11.47
2018-09-13T00:28:04.958Z,14.17
2018-09-13T00:30:32.251Z,13.00
2018-09-13T00:32:59.550Z,12.23
2018-09-13T00:35:26.837Z,13.80
2018-09-13T00:37:54.158Z,15.87
2018-09-13T00:40:21.453Z,14.13
2018-09-13T00:42:48.708Z,14.30
2018-09-13T00:45:15.949Z,12.50
2018-09-13T00:47:43.872Z,12.03
2018-09-13T00:50:11.993Z,12.57
2018-09-13T00:52:39.256Z,12.67
2018-09-13T00:55:06.488Z,14.47
2018-09-13T00:57:33.724Z,12.47
2018-09-13T01:00:01.017Z,13.37
2018-09-13T01:02:28.272Z,11.90
2018-09-13T01:04:55.568Z,14.23
2018-09-13T01:07:22.791Z,14.30
2018-09-13T01:09:51.929Z,12.90
2018-09-13T01:12:19.389Z,12.87
2018-09-13T01:14:46.652Z,13.10
2018-09-13T01:17:13.939Z,13.47
2018-09-13T01:19:41.163Z,13.17
2018-09-13T01:22:08.554Z,11.70
2018-09-13T01:24:35.874Z,14.17
2018-09-13T01:27:03.407Z,13.80
2018-09-13T01:29:30.688Z,13.30
2018-09-13T01:31:57.920Z,15.00
2018-09-13T01:34:25.179Z,15.07
2018-09-13T01:36:52.525Z,16.17
2018-09-13T01:39:19.777Z,14.47
2018-09-13T01:41:47.800Z,13.60
2018-09-13T01:44:15.066Z,15.50
2018-09-13T01:46:42.350Z,13.27
2018-09-13T01:49:09.613Z,16.30
2018-09-13T01:51:36.889Z,15.83
2018-09-13T01:54:04.168Z,15.07
2018-09-13T01:56:31.388Z,13.97
2018-09-13T01:58:58.682Z,14.90
2018-09-13T02:01:25.946Z,17.57
2018-09-13T02:03:53.222Z,15.13
2018-09-13T02:06:20.471Z,16.27
2018-09-13T02:08:47.770Z,14.33
2018-09-13T02:11:15.080Z,15.20
2018-09-13T02:13:42.401Z,15.37
2018-09-13T02:16:09.861Z,14.93
2018-09-13T02:18:37.129Z,16.17
2018-09-13T02:21:04.471Z,15.50
2018-09-13T02:23:31.740Z,15.50
2018-09-13T02:25:58.953Z,15.40
2018-09-13T02:28:26.228Z,16.80
2018-09-13T02:30:53.496Z,16.83
2018-09-13T02:33:20.746Z,16.67
2018-09-13T02:35:47.966Z,15.60
2018-09-13T02:38:15.227Z,15.77
2018-09-13T02:40:42.484Z,16.97
2018-09-13T02:43:09.740Z,15.17
2018-09-13T02:45:37.013Z,15.07
2018-09-13T02:48:04.549Z,13.37
2018-09-13T02:50:31.769Z,14.97
2018-09-13T02:52:58.940Z,14.87
2018-09-13T02:55:26.237Z,14.63
2018-09-13T02:57:53.512Z,14.17
2018-09-13T03:00:20.851Z,15.37
2018-09-13T03:02:48.226Z,14.90
2018-09-13T03:05:15.520Z,15.73
2018-09-13T03:07:42.796Z,18.57
2018-09-13T03:10:10.041Z,17.47
2018-09-13T03:12:37.301Z,13.67
2018-09-13T03:15:04.833Z,16.53
2018-09-13T03:17:32.068Z,14.83
2018-09-13T03:19:59.317Z,16.33
2018-09-13T03:22:27.007Z,15.77
2018-09-13T03:24:54.344Z,14.50
2018-09-13T03:27:21.695Z,14.33
2018-09-13T03:29:49.184Z,12.87
2018-09-13T03:32:16.422Z,14.00
2018-09-13T03:34:43.675Z,12.93
2018-09-13T03:37:10.930Z,13.07
2018-09-13T03:39:38.240Z,12.33
2018-09-13T03:42:05.798Z,12.70
2018-09-13T03:44:32.922Z,13.87
2018-09-13T03:47:00.176Z,13.43
2018-09-13T03:49:27.454Z,16.33
2018-09-13T03:51:54.708Z,13.80
2018-09-13T03:54:21.967Z,14.50
2018-09-13T03:56:49.217Z,15.43
2018-09-13T03:59:16.577Z,15.23
2018-09-13T04:01:43.856Z,13.93
2018-09-13T04:04:11.180Z,14.83
2018-09-13T04:06:38.432Z,14.53
2018-09-13T04:09:06.758Z,14.93
2018-09-13T04:11:33.985Z,14.43
2018-09-13T04:14:01.325Z,13.30
2018-09-13T04:16:28.629Z,15.83
2018-09-13T04:18:55.917Z,15.17
2018-09-13T04:21:23.187Z,15.70
2018-09-13T04:23:50.466Z,16.23
2018-09-13T04:26:17.934Z,15.00
2018-09-13T04:28:45.154Z,14.37
2018-09-13T04:31:12.417Z,14.90
2018-09-13T04:33:39.731Z,15.67
2018-09-13T04:36:07.095Z,15.87
2018-09-13T04:38:34.316Z,17.67
2018-09-13T04:41:01.666Z,18.17
2018-09-13T04:43:28.949Z,16.43
2018-09-13T04:45:56.489Z,18.60
2018-09-13T04:48:23.745Z,17.07
2018-09-13T04:50:51.000Z,17.40
2018-09-13T04:53:18.269Z,16.37
2018-09-13T04:55:45.602Z,15.93
2018-09-13T04:58:12.984Z,16.87
2018-09-13T05:00:40.274Z,18.40
2018-09-13T05:03:07.541Z,15.80
2018-09-13T05:05:34.801Z,16.30
2018-09-13T05:08:02.150Z,14.20
2018-09-13T05:10:29.408Z,14.70
2018-09-13T05:12:56.630Z,13.47
2018-09-13T05:15:23.890Z,15.33
2018-09-13T05:17:51.148Z,15.97
2018-09-13T05:20:18.441Z,14.90
2018-09-13T05:22:45.709Z,14.63
2018-09-13T05:25:13.020Z,13.60
2018-09-13T05:27:40.330Z,15.07
2018-09-13T05:30:07.711Z,17.00
2018-09-13T05:32:35.032Z,16.30
2018-09-13T05:35:02.280Z,14.47
2018-09-13T05:37:29.594Z,14.77
2018-09-13T05:39:56.893Z,15.37
2018-09-13T05:42:24.184Z,14.97
2018-09-13T05:44:51.431Z,15.60
2018-09-13T05:47:18.930Z,14.63
2018-09-13T05:49:46.179Z,13.67
2018-09-13T05:52:13.401Z,14.13
2018-09-13T05:54:40.737Z,13.30
2018-09-13T05:57:08.028Z,13.33
2018-09-13T05:59:35.281Z,13.53
2018-09-13T06:02:02.532Z,12.67
2018-09-13T06:04:33.377Z,12.67
2018-09-13T06:07:01.395Z,13.63
2018-09-13T06:09:30.004Z,16.23
2018-09-13T06:11:57.253Z,14.40
2018-09-13T06:14:24.500Z,13.83
2018-09-13T06:16:51.759Z,14.90
2018-09-13T06:19:19.077Z,14.17
2018-09-13T06:21:46.329Z,13.00
2018-09-13T06:24:13.598Z,14.73
2018-09-13T06:26:40.850Z,14.20
2018-09-13T06:29:08.140Z,14.40
2018-09-13T06:31:35.356Z,13.23
2018-09-13T06:34:02.622Z,14.67
2018-09-13T06:36:29.848Z,13.80
2018-09-13T06:38:57.122Z,14.07
2018-09-13T06:41:24.411Z,13.58
2018-09-13T06:43:51.695Z,13.28
2018-09-13T06:46:18.993Z,12.82
2018-09-13T06:48:46.212Z,12.93
2018-09-13T06:51:13.500Z,13.32
2018-09-13T06:53:40.660Z,12.93
2018-09-13T06:56:07.999Z,11.97
2018-09-13T06:58:35.240Z,12.65
2018-09-13T07:01:02.569Z,13.10
2018-09-13T07:03:29.812Z,13.65
2018-09-13T07:05:57.064Z,12.82
2018-09-13T07:08:24.318Z,14.47
2018-09-13T07:10:51.680Z,13.45
2018-09-13T07:13:18.908Z,14.18
2018-09-13T07:15:46.076Z,14.38
2018-09-13T07:18:13.303Z,16.65
2018-09-13T07:20:40.522Z,15.00
2018-09-13T07:23:07.771Z,15.80
2018-09-13T07:25:35.044Z,15.85
2018-09-13T07:28:02.313Z,15.23
2018-09-13T07:30:29.534Z,15.90
2018-09-13T07:32:56.785Z,15.43
2018-09-13T07:35:24.042Z,15.25
2018-09-13T07:37:51.286Z,15.28
2018-09-13T07:40:18.515Z,16.50
2018-09-13T07:42:45.794Z,15.85
2018-09-13T07:45:13.010Z,17.37
2018-09-13T07:47:40.186Z,17.05
2018-09-13T07:50:07.345Z,17.48
2018-09-13T07:52:34.563Z,16.82
2018-09-13T07:55:01.844Z,19.45
2018-09-13T07:57:29.059Z,18.02
2018-09-13T07:59:56.330Z,17.82
2018-09-13T08:02:23.628Z,18.15
2018-09-13T08:04:50.908Z,19.87
2018-09-13T08:07:18.094Z,19.95
2018-09-13T08:09:45.340Z,18.73
2018-09-13T08:12:12.681Z,19.87
2018-09-13T08:14:40.012Z,22.13
2018-09-13T08:17:07.287Z,20.62
2018-09-13T08:19:34.492Z,19.67
2018-09-13T08:22:01.837Z,19.30
2018-09-13T08:24:29.056Z,20.35
2018-09-13T08:26:56.299Z,21.55
2018-09-13T08:29:23.525Z,18.52
2018-09-13T08:31:50.777Z,20.32
2018-09-13T08:34:17.977Z,19.65
2018-09-13T08:36:45.302Z,20.02
2018-09-13T08:39:12.567Z,19.45
2018-09-13T08:41:39.925Z,19.23
2018-09-13T08:44:07.244Z,20.25
2018-09-13T08:46:34.515Z,21.20
2018-09-13T08:49:01.781Z,20.70
2018-09-13T08:51:29.039Z,19.62
2018-09-13T08:53:58.128Z,20.15
2018-09-13T08:56:26.417Z,19.25
2018-09-13T08:58:53.689Z,18.92
2018-09-13T09:01:20.945Z,18.60
2018-09-13T09:03:48.161Z,19.57
2018-09-13T09:06:15.503Z,19.07
2018-09-13T09:08:42.727Z,18.85
2018-09-13T09:11:10.077Z,17.98
2018-09-13T09:13:37.372Z,18.45
2018-09-13T09:16:04.625Z,19.70
2018-09-13T09:18:32.126Z,15.65
2018-09-13T09:20:59.476Z,17.87
2018-09-13T09:23:26.740Z,18.90
2018-09-13T09:25:54.034Z,19.12
2018-09-13T09:28:21.271Z,18.77
2018-09-13T09:30:48.513Z,18.02
2018-09-13T09:33:15.771Z,19.30
2018-09-13T09:35:43.048Z,19.57
2018-09-13T09:38:10.614Z,21.77
2018-09-13T09:40:37.956Z,21.02
2018-09-13T09:43:05.780Z,20.45
2018-09-13T09:45:33.018Z,18.85
2018-09-13T09:48:00.267Z,17.73
2018-09-13T09:50:27.753Z,18.10
2018-09-13T09:52:54.941Z,18.55
2018-09-13T09:55:23.096Z,16.73
2018-09-13T09:57:50.843Z,18.02
2018-09-13T10:00:22.693Z,17.25
2018-09-13T10:02:49.945Z,17.42
2018-09-13T10:05:17.304Z,16.32
2018-09-13T10:07:44.739Z,16.40
2018-09-13T10:10:12.044Z,16.30
2018-09-13T10:12:39.793Z,16.25
2018-09-13T10:15:13.051Z,15.30
2018-09-13T10:17:45.792Z,14.93
2018-09-13T10:20:18.821Z,13.13
2018-09-13T10:22:51.849Z,13.40
2018-09-13T10:25:24.618Z,14.23
2018-09-13T10:27:57.557Z,13.00
2018-09-13T10:30:30.622Z,13.75
2018-09-13T10:33:03.407Z,14.40
2018-09-13T10:35:36.443Z,14.50
2018-09-13T10:38:09.311Z,13.90
2018-09-13T10:40:42.345Z,12.65
2018-09-13T10:43:15.336Z,13.15
2018-09-13T10:47:56.929Z,12.80
2018-09-13T10:50:23.408Z,12.85
2018-09-13T10:52:56.454Z,13.25
2018-09-13T10:55:23.752Z,13.18
2018-09-13T10:57:50.938Z,13.03
2018-09-13T11:00:18.256Z,13.38
2018-09-13T11:02:45.544Z,13.65
2018-09-13T11:05:12.786Z,13.35
2018-09-13T11:07:40.141Z,13.08
2018-09-13T11:10:07.340Z,13.58
2018-09-13T11:12:41.246Z,14.30
2018-09-13T11:15:41.120Z,13.25
2018-09-13T11:18:08.436Z,12.65
2018-09-13T11:20:35.702Z,12.30
2018-09-13T11:23:02.972Z,12.78
2018-09-13T11:25:30.204Z,12.63
2018-09-13T11:27:57.462Z,12.65
2018-09-13T11:30:25.010Z,12.33
2018-09-13T11:32:55.206Z,11.85
2018-09-13T11:35:22.496Z,12.50
2018-09-13T11:37:49.854Z,12.82
2018-09-13T11:40:17.235Z,11.88
2018-09-13T11:42:44.363Z,11.97
2018-09-13T11:45:11.608Z,12.30
2018-09-13T11:47:39.529Z,10.82
2018-09-13T11:50:07.012Z,11.43
2018-09-13T11:52:34.317Z,12.73
2018-09-13T11:55:01.621Z,12.18
2018-09-13T11:57:28.951Z,12.55
2018-09-13T11:59:56.242Z,11.05
2018-09-13T12:02:23.625Z,12.37
2018-09-13T12:04:50.871Z,11.00
2018-09-13T12:07:18.100Z,12.53
2018-09-13T12:09:45.596Z,12.13
2018-09-13T12:12:12.833Z,12.20
2018-09-13T12:14:40.258Z,11.38
2018-09-13T12:17:07.544Z,11.50
2018-09-13T12:19:34.797Z,11.33
2018-09-13T12:22:02.004Z,11.35
2018-09-13T12:24:29.260Z,11.85
2018-09-13T12:26:56.506Z,11.65
2018-09-13T12:29:23.817Z,12.40
2018-09-13T12:31:51.058Z,11.25
2018-09-13T12:34:21.465Z,11.53
2018-09-13T12:36:48.705Z,11.18
2018-09-13T12:39:15.966Z,11.20
2018-09-13T12:41:43.204Z,11.70
2018-09-13T12:44:10.700Z,12.13
2018-09-13T12:46:37.925Z,11.75
2018-09-13T12:49:05.341Z,12.00
2018-09-13T12:51:32.663Z,12.78
2018-09-13T12:54:00.190Z,11.22
2018-09-13T12:56:27.500Z,12.40
2018-09-13T12:58:54.749Z,11.90
2018-09-13T13:01:21.977Z,12.47
2018-09-13T13:03:49.255Z,11.68
2018-09-13T13:06:16.489Z,11.38
2018-09-13T13:08:43.787Z,11.15
2018-09-13T13:11:11.050Z,11.70
2018-09-13T13:13:38.538Z,11.80
2018-09-13T13:16:05.754Z,12.37
2018-09-13T13:18:32.986Z,12.05
2018-09-13T13:21:00.301Z,11.78
2018-09-13T13:23:27.533Z,11.55
2018-09-13T13:25:54.867Z,11.90
2018-09-13T13:28:22.113Z,11.15
2018-09-13T13:30:49.474Z,11.22
2018-09-13T13:33:16.744Z,11.80
2018-09-13T13:35:44.002Z,12.37
2018-09-13T13:38:11.221Z,11.73
2018-09-13T13:40:38.507Z,11.45
2018-09-13T13:43:05.799Z,10.53
2018-09-13T13:45:33.190Z,10.32
2018-09-13T13:48:01.627Z,11.43
2018-09-13T13:50:28.878Z,11.18
2018-09-13T13:52:56.153Z,10.98
2018-09-13T13:55:23.442Z,10.43
2018-09-13T13:57:50.668Z,11.20
2018-09-13T14:00:17.904Z,11.48
2018-09-13T14:02:45.140Z,10.70
2018-09-13T14:05:12.389Z,10.85
2018-09-13T14:07:39.637Z,12.25
2018-09-13T14:10:06.965Z,11.50
2018-09-13T14:12:34.205Z,11.20
2018-09-13T14:15:01.477Z,11.65
2018-09-13T14:17:28.745Z,11.28
2018-09-13T14:19:56.022Z,12.35
2018-09-13T14:22:23.309Z,11.22
2018-09-13T14:24:50.564Z,11.25
2018-09-13T14:27:17.814Z,11.03
2018-09-13T14:29:45.077Z,10.50
2018-09-13T14:32:21.456Z,9.98
2018-09-13T14:34:49.487Z,10.88
2018-09-13T14:37:16.992Z,10.58
2018-09-13T14:39:44.286Z,10.03
2018-09-13T14:42:11.545Z,10.53
2018-09-13T14:44:38.817Z,11.33
2018-09-13T14:47:06.134Z,10.63
2018-09-13T14:49:33.366Z,8.55
2018-09-13T14:52:00.620Z,9.68
2018-09-13T14:54:27.836Z,9.53
2018-09-13T14:56:55.123Z,8.45
2018-09-13T14:59:22.527Z,9.08
2018-09-13T15:01:49.766Z,9.48
2018-09-13T15:04:17.038Z,8.48
2018-09-13T15:06:44.269Z,9.20
2018-09-13T15:09:12.436Z,9.35
2018-09-13T15:11:39.773Z,7.00
2018-09-13T15:14:06.992Z,6.45
2018-09-13T15:16:34.244Z,7.45
2018-09-13T15:19:01.541Z,6.22
2018-09-13T15:21:28.903Z,6.70
2018-09-13T15:23:56.192Z,6.80
2018-09-13T15:26:23.483Z,6.10
2018-09-13T15:28:50.857Z,5.78
2018-09-13T15:31:20.588Z,6.40
2018-09-13T15:33:47.805Z,6.45
2018-09-13T15:36:15.060Z,6.90
2018-09-13T15:38:42.358Z,7.15
2018-09-13T15:41:09.565Z,6.80
2018-09-13T15:43:36.806Z,6.80
2018-09-13T15:46:04.372Z,6.30
2018-09-13T15:48:31.646Z,6.28
2018-09-13T15:50:58.972Z,7.45
2018-09-13T15:53:26.423Z,7.22
2018-09-13T15:55:53.892Z,6.92
2018-09-13T15:58:21.255Z,8.00
2018-09-13T16:00:48.501Z,6.45
2018-09-13T16:03:16.769Z,8.53
2018-09-13T16:05:44.022Z,6.42
2018-09-13T16:08:11.272Z,6.12
2018-09-13T16:10:38.531Z,5.60
2018-09-13T16:13:06.119Z,6.08
2018-09-13T16:15:33.283Z,5.90
2018-09-13T16:18:00.513Z,5.83
2018-09-13T16:20:27.796Z,6.05
2018-09-13T16:22:55.013Z,5.85
2018-09-13T16:25:22.278Z,6.05
2018-09-13T16:27:49.528Z,6.10
2018-09-13T16:30:16.787Z,6.08
2018-09-13T16:32:44.040Z,6.03
2018-09-13T16:35:11.355Z,6.05
2018-09-13T16:37:44.344Z,6.42
2018-09-13T16:40:20.585Z,6.03
2018-09-13T16:42:53.657Z,6.35
2018-09-13T16:45:21.353Z,6.95
2018-09-13T16:47:54.303Z,6.95
2018-09-13T16:50:21.616Z,6.83
2018-09-13T16:52:49.060Z,5.92
2018-09-13T16:55:16.289Z,5.85
2018-09-13T16:57:43.566Z,6.22
2018-09-13T17:00:10.898Z,5.97
2018-09-13T17:02:38.148Z,6.40
2018-09-13T17:05:05.518Z,6.12
2018-09-13T17:07:32.878Z,6.55
2018-09-13T17:10:00.126Z,6.77
2018-09-13T17:12:27.401Z,6.83
2018-09-13T17:14:54.845Z,6.80
2018-09-13T17:17:22.146Z,6.70
2018-09-13T17:19:49.397Z,6.70
2018-09-13T17:22:16.665Z,6.40
2018-09-13T17:24:43.953Z,6.60
2018-09-13T17:27:11.196Z,6.87
2018-09-13T17:29:38.509Z,7.00
2018-09-13T17:32:05.792Z,6.50
2018-09-13T17:34:33.038Z,6.62
2018-09-13T17:37:00.287Z,7.22
2018-09-13T17:39:27.532Z,6.90
2018-09-13T17:41:54.793Z,6.95
2018-09-13T17:44:22.041Z,6.22
2018-09-13T17:46:49.260Z,6.12
2018-09-13T17:49:16.489Z,6.95
2018-09-13T17:51:43.733Z,7.28
2018-09-13T17:54:10.948Z,6.12
2018-09-13T17:56:38.196Z,7.42
2018-09-13T17:59:05.460Z,6.40
2018-09-13T18:01:32.722Z,6.33
2018-09-13T18:03:59.949Z,7.20
2018-09-13T18:06:27.201Z,6.83
2018-09-13T18:08:54.484Z,6.75
2018-09-13T18:11:21.729Z,6.58
2018-09-13T18:13:49.365Z,6.70
2018-09-13T18:16:16.744Z,6.45
2018-09-13T18:18:43.992Z,6.47
2018-09-13T18:21:11.244Z,6.28
2018-09-13T18:23:38.540Z,6.17
2018-09-13T18:26:05.768Z,6.28
2018-09-13T18:28:33.011Z,7.20
2018-09-13T18:31:00.489Z,6.95
2018-09-13T18:33:27.743Z,7.05
2018-09-13T18:35:55.145Z,7.17
2018-09-13T18:38:22.396Z,6.83
2018-09-13T18:40:49.788Z,7.03
2018-09-13T18:43:17.122Z,6.67
2018-09-13T18:45:44.424Z,6.55
2018-09-13T18:48:11.688Z,6.75
2018-09-13T18:50:38.991Z,7.08
2018-09-13T18:53:06.333Z,6.10
2018-09-13T18:55:33.627Z,6.58
2018-09-13T18:58:00.898Z,6.37
2018-09-13T19:00:28.188Z,7.03
2018-09-13T19:02:55.439Z,6.30
2018-09-13T19:05:22.745Z,6.85
2018-09-13T19:07:50.038Z,6.03
2018-09-13T19:10:17.292Z,6.20
2018-09-13T19:12:44.997Z,6.60
2018-09-13T19:15:12.246Z,6.97
2018-09-13T19:17:39.509Z,6.25
2018-09-13T19:20:07.037Z,6.60
2018-09-13T19:22:34.304Z,5.97
2018-09-13T19:25:01.526Z,5.87
2018-09-13T19:27:28.794Z,6.37
2018-09-13T19:29:56.070Z,5.47
2018-09-13T19:32:23.339Z,6.20
2018-09-13T19:34:50.580Z,6.30
2018-09-13T19:37:17.962Z,6.65
2018-09-13T19:39:45.185Z,6.00
2018-09-13T19:42:14.127Z,5.50
2018-09-13T19:44:41.357Z,5.58
2018-09-13T19:47:08.603Z,6.20
2018-09-13T19:49:35.864Z,6.62
2018-09-13T19:52:03.089Z,6.05
2018-09-13T19:54:30.398Z,6.47
2018-09-13T19:56:57.700Z,6.85
2018-09-13T19:59:25.013Z,6.58
2018-09-13T20:01:52.275Z,7.20
2018-09-13T20:04:19.628Z,7.15
2018-09-13T20:06:46.924Z,7.03
2018-09-13T20:09:14.198Z,6.87
2018-09-13T20:11:41.722Z,6.90
2018-09-13T20:14:09.738Z,7.28
2018-09-13T20:16:37.012Z,6.83
2018-09-13T20:19:04.299Z,7.47
2018-09-13T20:21:31.662Z,8.13
2018-09-13T20:23:59.000Z,7.33
2018-09-13T20:26:26.252Z,8.38
2018-09-13T20:28:53.609Z,7.90
2018-09-13T20:31:20.754Z,8.05
2018-09-13T20:33:48.353Z,8.13
2018-09-13T20:36:15.627Z,6.97
2018-09-13T20:38:42.926Z,7.83
2018-09-13T20:41:10.213Z,8.08
2018-09-13T20:43:37.482Z,8.48
2018-09-13T20:46:04.762Z,8.40
2018-09-13T20:48:32.028Z,8.48
2018-09-13T20:50:59.260Z,8.28
2018-09-13T20:53:26.600Z,8.80
2018-09-13T20:55:53.891Z,7.97
2018-09-13T20:58:21.176Z,8.20
2018-09-13T21:00:48.563Z,8.38
2018-09-13T21:03:15.819Z,8.55
2018-09-13T21:05:43.081Z,8.00
2018-09-13T21:08:10.370Z,9.13
2018-09-13T21:10:37.761Z,7.78
2018-09-13T21:13:05.134Z,8.63
2018-09-13T21:15:32.394Z,8.08
2018-09-13T21:17:59.914Z,8.18
2018-09-13T21:20:27.711Z,9.08
2018-09-13T21:22:54.932Z,7.65
2018-09-13T21:25:22.261Z,7.58
2018-09-13T21:27:49.621Z,7.85
2018-09-13T21:30:16.881Z,8.05
2018-09-13T21:32:44.186Z,7.72
2018-09-13T21:35:11.429Z,8.13
2018-09-13T21:37:38.726Z,7.87
2018-09-13T21:40:05.985Z,9.00
2018-09-13T21:42:33.416Z,8.63
2018-09-13T21:45:00.650Z,8.98
2018-09-13T21:47:30.994Z,8.95
2018-09-13T21:49:58.649Z,9.68
2018-09-13T21:52:25.909Z,10.65
2018-09-13T21:54:53.186Z,10.50
2018-09-13T21:57:20.490Z,10.15
2018-09-13T21:59:47.758Z,10.45
2018-09-13T22:02:15.050Z,10.50
2018-09-13T22:04:42.785Z,11.10
2018-09-13T22:07:10.033Z,10.98
2018-09-13T22:09:37.300Z,10.18
2018-09-13T22:12:04.718Z,10.50
2018-09-13T22:14:31.977Z,9.10
2018-09-13T22:16:59.316Z,10.23
2018-09-13T22:19:26.612Z,10.20
2018-09-13T22:21:53.873Z,11.03
2018-09-13T22:24:21.158Z,10.15
2018-09-13T22:26:48.429Z,10.65
2018-09-13T22:29:15.728Z,10.48
2018-09-13T22:31:42.976Z,10.97
2018-09-13T22:34:10.311Z,12.05
2018-09-13T22:36:37.601Z,12.43
2018-09-13T22:39:06.697Z,11.43
2018-09-13T22:41:34.017Z,12.10
2018-09-13T22:44:01.346Z,12.70
2018-09-13T22:46:28.627Z,12.50
2018-09-13T22:48:55.970Z,11.90
2018-09-13T22:51:23.212Z,12.25
2018-09-13T22:53:50.468Z,12.68
2018-09-13T22:56:17.786Z,11.87
2018-09-13T22:58:45.310Z,12.15
2018-09-13T23:01:12.561Z,12.88
2018-09-13T23:03:39.811Z,12.60
2018-09-13T23:06:07.089Z,13.13
2018-09-13T23:08:34.441Z,12.78
2018-09-13T23:11:01.682Z,12.43
2018-09-13T23:13:28.974Z,13.53
2018-09-13T23:15:56.325Z,13.58
2018-09-13T23:18:23.554Z,13.88
2018-09-13T23:20:50.800Z,14.33
2018-09-13T23:23:18.256Z,13.37
2018-09-13T23:25:45.557Z,13.73
2018-09-13T23:28:12.882Z,13.87
2018-09-13T23:30:40.117Z,13.67
2018-09-13T23:33:07.541Z,14.60
2018-09-13T23:35:34.895Z,14.38
2018-09-13T23:38:02.208Z,14.83
2018-09-13T23:40:29.596Z,14.93
2018-09-13T23:42:56.848Z,14.80
2018-09-13T23:45:24.057Z,14.60
2018-09-13T23:47:51.284Z,15.58
2018-09-13T23:50:18.762Z,14.75
2018-09-13T23:52:46.017Z,15.15
2018-09-13T23:55:13.258Z,14.55
2018-09-13T23:57:40.522Z,14.07
